Time;durP1;ratioP1;P1;durP2;ratioP2;P2;SDS_P1;SDS_P2;PMS_P1;PMS_P2;Temp;Humidity;BMP_temperature;BMP_pressure;BME280_temperature;BME280_humidity;BME280_pressure;Samples;Min_cycle;Max_cycle;Signal;HPM_P1;HPM_P2
2021/04/25 00:00:27;;;;;;;14.75;4.70;;;;;;;11.18;60.78;102305.97;5052218;28;20063;-48
2021/04/25 00:02:53;;;;;;;21.48;7.50;;;;;;;11.18;60.84;102302.38;5062193;28;20049;-46
2021/04/25 00:05:20;;;;;;;15.63;6.28;;;;;;;11.14;61.20;102310.50;5072349;28;20052;-46
2021/04/25 00:07:47;;;;;;;14.38;6.25;;;;;;;11.11;61.36;102308.34;5062166;28;20072;-46
2021/04/25 00:10:16;;;;;;;14.93;5.78;;;;;;;11.02;61.56;102304.66;5068478;28;20048;-48
2021/04/25 00:12:43;;;;;;;12.52;6.18;;;;;;;11.11;61.41;102313.91;5051928;28;20128;-48
2021/04/25 00:15:13;;;;;;;13.18;6.00;;;;;;;10.97;61.78;102302.84;5052183;28;20124;-49
2021/04/25 00:17:40;;;;;;;11.48;5.10;;;;;;;10.95;61.90;102301.50;5051915;28;20147;-48
2021/04/25 00:20:07;;;;;;;18.13;7.28;;;;;;;10.86;62.18;102306.94;5067061;28;20053;-46
2021/04/25 00:22:34;;;;;;;10.60;5.10;;;;;;;10.93;62.14;102312.09;5072123;28;20051;-46
2021/04/25 00:25:01;;;;;;;16.23;6.35;;;;;;;10.92;62.13;102304.88;5060594;28;20083;-49
2021/04/25 00:27:28;;;;;;;25.38;6.88;;;;;;;10.86;62.18;102304.19;5053191;28;20136;-46
2021/04/25 00:29:55;;;;;;;9.77;5.35;;;;;;;10.83;62.38;102306.72;5071820;28;20044;-47
2021/04/25 00:32:21;;;;;;;14.77;5.90;;;;;;;10.91;62.19;102308.78;5071986;28;20045;-47
2021/04/25 00:34:47;;;;;;;10.27;5.68;;;;;;;10.91;62.04;102315.16;5072032;28;20090;-45
2021/04/25 00:37:14;;;;;;;14.00;6.50;;;;;;;10.83;62.26;102309.50;5071351;28;20166;-47
2021/04/25 00:39:40;;;;;;;11.57;5.32;;;;;;;10.76;62.39;102309.09;5070969;28;20072;-49
2021/04/25 00:42:07;;;;;;;14.00;6.07;;;;;;;10.70;62.73;102302.03;5071837;28;20461;-47
2021/04/25 00:44:33;;;;;;;12.75;5.18;;;;;;;10.69;62.75;102315.06;5070981;28;20162;-47
2021/04/25 00:46:59;;;;;;;20.65;6.75;;;;;;;10.70;63.42;102308.38;5071662;28;20040;-46
2021/04/25 00:49:26;;;;;;;13.00;6.57;;;;;;;10.77;63.30;102305.22;5071778;28;20063;-47
2021/04/25 00:51:55;;;;;;;15.43;7.57;;;;;;;10.81;63.66;102320.91;5083088;28;20075;-47
2021/04/25 00:54:22;;;;;;;11.80;5.70;;;;;;;10.81;63.60;102314.53;5080772;28;20044;-49
2021/04/25 00:56:48;;;;;;;17.90;7.13;;;;;;;10.81;63.81;102317.31;5071151;28;20084;-48
2021/04/25 00:59:15;;;;;;;14.73;6.85;;;;;;;10.79;63.88;102314.88;5071944;28;20083;-47
2021/04/25 01:01:41;;;;;;;14.30;5.85;;;;;;;10.76;64.10;102311.88;5069512;28;20045;-46
2021/04/25 01:04:07;;;;;;;12.65;6.28;;;;;;;10.69;64.37;102322.56;5071218;28;20481;-48
2021/04/25 01:06:34;;;;;;;17.38;7.22;;;;;;;10.63;64.95;102312.69;5070288;28;20139;-49
2021/04/25 01:09:00;;;;;;;16.00;7.88;;;;;;;10.60;64.99;102313.31;5070091;28;20087;-47
2021/04/25 01:11:26;;;;;;;18.13;6.72;;;;;;;10.57;65.44;102305.63;5071531;28;20123;-46
2021/04/25 01:13:53;;;;;;;20.98;7.68;;;;;;;10.62;65.62;102308.28;5070912;28;20124;-49
2021/04/25 01:16:20;;;;;;;14.27;7.10;;;;;;;10.63;65.64;102309.94;5071439;28;20048;-46
2021/04/25 01:18:46;;;;;;;19.23;6.93;;;;;;;10.63;65.91;102307.16;5066446;28;20127;-48
2021/04/25 01:21:13;;;;;;;17.55;6.25;;;;;;;10.73;65.61;102315.25;5050133;28;20033;-47
2021/04/25 01:23:39;;;;;;;17.95;7.53;;;;;;;10.71;65.57;102303.69;5051324;28;20132;-49
2021/04/25 01:26:05;;;;;;;15.30;6.90;;;;;;;10.73;65.68;102306.94;5050900;28;20044;-47
2021/04/25 01:28:33;;;;;;;17.85;6.47;;;;;;;10.70;65.67;102304.78;5051006;28;20041;-46
2021/04/25 01:30:59;;;;;;;11.77;5.88;;;;;;;10.66;65.73;102303.78;5051318;28;20099;-46
2021/04/25 01:33:28;;;;;;;22.13;8.30;;;;;;;10.62;65.83;102311.03;5054943;28;20056;-49
2021/04/25 01:35:54;;;;;;;13.75;6.60;;;;;;;10.54;66.00;102306.25;5061054;28;20044;-48
2021/04/25 01:38:21;;;;;;;16.08;6.72;;;;;;;10.44;66.31;102304.47;5073748;28;20040;-46
2021/04/25 01:40:47;;;;;;;20.30;7.72;;;;;;;10.47;66.76;102300.28;5075451;28;20053;-48
2021/04/25 01:43:14;;;;;;;23.15;8.77;;;;;;;10.46;66.71;102298.66;5075647;28;20063;-47
2021/04/25 01:45:40;;;;;;;19.23;8.43;;;;;;;10.44;66.70;102303.66;5075204;28;20052;-47
2021/04/25 01:48:08;;;;;;;17.13;6.80;;;;;;;10.54;66.31;102303.47;5075086;28;20501;-45
2021/04/25 01:50:35;;;;;;;16.52;7.60;;;;;;;10.49;66.21;102300.78;5075838;28;20048;-49
2021/04/25 01:53:02;;;;;;;13.65;6.18;;;;;;;10.41;66.48;102307.84;5080552;28;20044;-46
2021/04/25 01:55:31;;;;;;;12.57;5.72;;;;;;;10.35;66.63;102309.09;5055715;28;20041;-46
2021/04/25 01:57:59;;;;;;;13.73;5.70;;;;;;;10.31;66.68;102305.28;5053890;28;20549;-50
2021/04/25 02:00:31;;;;;;;19.00;6.80;;;;;;;10.31;66.70;102306.13;5052552;28;20144;-49
2021/04/25 02:02:59;;;;;;;20.60;7.63;;;;;;;10.32;66.63;102302.25;5059005;28;20497;-46
2021/04/25 02:05:25;;;;;;;15.80;7.90;;;;;;;10.25;66.96;102299.03;5073890;28;20040;-45
2021/04/25 02:07:52;;;;;;;15.32;7.90;;;;;;;10.21;67.59;102295.25;5074961;28;20461;-47
2021/04/25 02:10:20;;;;;;;25.55;9.25;;;;;;;10.22;67.26;102296.88;5059158;28;20495;-49
2021/04/25 02:12:47;;;;;;;19.92;7.88;;;;;;;10.22;67.29;102290.50;5054728;28;20072;-45
2021/04/25 02:15:14;;;;;;;15.15;6.72;;;;;;;10.20;67.47;102298.28;5059890;28;20086;-46
2021/04/25 02:17:44;;;;;;;17.85;7.82;;;;;;;10.25;67.14;102301.78;5072593;28;20067;-49
2021/04/25 02:20:12;;;;;;;13.10;6.18;;;;;;;10.20;67.16;102296.34;5074690;28;20072;-46
2021/04/25 02:22:41;;;;;;;16.08;6.95;;;;;;;10.09;67.33;102297.63;5074520;28;20080;-47
2021/04/25 02:25:10;;;;;;;23.35;8.23;;;;;;;10.01;67.78;102298.31;5073158;28;20123;-49
2021/04/25 02:27:37;;;;;;;11.52;6.10;;;;;;;9.98;67.69;102290.63;5061429;28;20049;-46
2021/04/25 02:30:06;;;;;;;15.38;6.93;;;;;;;9.92;67.78;102296.56;5053471;28;20505;-46
2021/04/25 02:32:32;;;;;;;18.30;8.25;;;;;;;9.82;67.83;102295.59;5052599;28;20144;-46
2021/04/25 02:34:59;;;;;;;21.08;8.32;;;;;;;9.71;68.09;102301.63;5053268;28;20211;-47
2021/04/25 02:37:31;;;;;;;18.30;8.13;;;;;;;9.76;67.85;102298.78;5052861;28;20040;-48
2021/04/25 02:39:58;;;;;;;13.02;7.82;;;;;;;9.72;67.77;102292.19;5052845;28;20103;-50
2021/04/25 02:42:24;;;;;;;15.60;7.57;;;;;;;9.69;68.00;102295.56;5052539;28;20065;-49
2021/04/25 02:44:50;;;;;;;18.38;8.32;;;;;;;9.68;67.90;102300.28;5065707;28;20036;-50
2021/04/25 02:47:16;;;;;;;17.85;8.18;;;;;;;9.66;68.07;102298.94;5071721;28;20379;-46
2021/04/25 02:49:43;;;;;;;24.88;10.10;;;;;;;9.64;68.16;102302.00;5072543;28;20086;-49
2021/04/25 02:52:09;;;;;;;23.42;11.13;;;;;;;9.67;68.06;102306.09;5086624;28;20043;-47
2021/04/25 02:54:35;;;;;;;19.50;9.40;;;;;;;9.63;68.25;102310.59;5069391;28;20072;-50
2021/04/25 02:57:02;;;;;;;23.33;9.90;;;;;;;9.59;68.41;102306.78;5052700;28;20095;-48
2021/04/25 02:59:28;;;;;;;22.60;9.18;;;;;;;9.59;68.45;102304.03;5051099;28;20495;-48
2021/04/25 03:01:54;;;;;;;18.50;8.95;;;;;;;9.62;68.47;102298.72;5048626;28;20115;-50
2021/04/25 03:04:21;;;;;;;23.15;9.65;;;;;;;9.58;68.65;102302.41;5072526;28;20040;-49
2021/04/25 03:06:47;;;;;;;22.75;10.85;;;;;;;9.61;68.63;102305.34;5071724;28;20045;-48
2021/04/25 03:09:13;;;;;;;26.88;10.80;;;;;;;9.62;68.91;102314.47;5064006;28;20071;-48
2021/04/25 03:11:40;;;;;;;25.10;11.30;;;;;;;9.65;68.68;102309.19;5052291;28;20440;-46
2021/04/25 03:14:06;;;;;;;18.85;10.68;;;;;;;9.59;68.84;102306.78;5052222;28;20056;-49
2021/04/25 03:16:32;;;;;;;16.85;9.20;;;;;;;9.54;68.95;102312.41;5052289;28;20110;-52
2021/04/25 03:18:59;;;;;;;18.98;9.52;;;;;;;9.52;69.12;102309.13;5052898;28;20106;-48
2021/04/25 03:21:25;;;;;;;27.23;9.73;;;;;;;9.46;69.31;102315.84;5053075;28;20540;-46
2021/04/25 03:23:51;;;;;;;19.65;8.95;;;;;;;9.39;69.46;102309.88;5080548;28;20072;-48
2021/04/25 03:26:18;;;;;;;17.33;8.65;;;;;;;9.36;69.48;102305.75;5035683;28;717132;-51
2021/04/25 03:28:45;;;;;;;17.02;9.27;;;;;;;9.33;69.58;102316.59;5072971;28;20110;-49
2021/04/25 03:31:11;;;;;;;22.50;9.15;;;;;;;9.31;69.71;102314.13;5073317;28;20072;-46
2021/04/25 03:33:37;;;;;;;19.70;9.38;;;;;;;9.32;69.43;102314.97;5073149;28;20053;-48
2021/04/25 03:36:04;;;;;;;24.70;10.73;;;;;;;9.34;69.58;102315.47;5056149;28;20049;-51
2021/04/25 03:38:30;;;;;;;16.75;8.73;;;;;;;9.29;69.58;102310.03;5052325;28;20132;-50
2021/04/25 03:40:57;;;;;;;15.68;9.18;;;;;;;9.26;69.81;102327.19;5051237;28;20049;-47
2021/04/25 03:43:24;;;;;;;14.70;9.60;;;;;;;9.23;69.73;102319.50;5050942;28;20057;-47
2021/04/25 03:45:50;;;;;;;19.90;8.15;;;;;;;9.21;69.68;102321.75;5053010;28;20120;-46
2021/04/25 03:48:16;;;;;;;24.52;10.68;;;;;;;9.24;69.83;102326.69;5052998;28;20118;-47
2021/04/25 03:50:42;;;;;;;22.15;11.48;;;;;;;9.26;69.75;102339.09;5056578;28;20123;-46
2021/04/25 03:53:09;;;;;;;23.40;10.65;;;;;;;9.26;69.92;102341.03;5059396;28;20132;-51
2021/04/25 03:55:35;;;;;;;21.95;10.63;;;;;;;9.25;69.89;102337.44;5052054;28;20071;-49
2021/04/25 03:58:02;;;;;;;21.05;11.48;;;;;;;9.23;70.13;102353.50;5052786;28;20122;-49
2021/04/25 04:00:28;;;;;;;33.45;12.48;;;;;;;9.19;70.18;102344.97;5061251;28;20131;-48
2021/04/25 04:02:54;;;;;;;31.98;12.45;;;;;;;9.19;70.48;102344.13;5072803;28;20047;-46
2021/04/25 04:05:21;;;;;;;27.60;12.82;;;;;;;9.11;71.42;102351.16;5072363;28;20124;-46
2021/04/25 04:07:47;;;;;;;25.33;13.20;;;;;;;9.06;71.42;102340.16;5071937;28;20090;-47
2021/04/25 04:10:13;;;;;;;32.30;14.43;;;;;;;8.99;71.89;102338.88;5072107;28;20106;-48
2021/04/25 04:12:40;;;;;;;31.35;13.43;;;;;;;8.90;72.42;102340.66;5071993;28;20051;-47
2021/04/25 04:15:07;;;;;;;34.70;13.98;;;;;;;8.80;72.90;102349.06;5072415;28;20052;-48
2021/04/25 04:17:34;;;;;;;32.50;12.48;;;;;;;8.73;72.83;102351.38;5071781;28;20098;-48
2021/04/25 04:20:00;;;;;;;33.28;14.68;;;;;;;8.67;73.04;102350.59;5071137;28;20139;-48
2021/04/25 04:22:27;;;;;;;31.42;13.43;;;;;;;8.65;73.06;102354.75;5080484;28;20051;-51
2021/04/25 04:24:53;;;;;;;26.00;14.18;;;;;;;8.65;73.05;102349.25;5057400;28;20132;-45
2021/04/25 04:27:19;;;;;;;24.85;12.88;;;;;;;8.68;73.36;102355.00;5068985;28;20131;-48
2021/04/25 04:29:46;;;;;;;30.85;14.73;;;;;;;8.68;73.07;102356.94;5072201;28;20135;-47
2021/04/25 04:32:12;;;;;;;36.70;17.08;;;;;;;8.71;73.27;102353.59;5071643;28;20398;-47
2021/04/25 04:34:39;;;;;;;24.08;13.88;;;;;;;8.70;73.10;102357.47;5072393;28;20064;-47
2021/04/25 04:37:05;;;;;;;33.58;14.80;;;;;;;8.65;73.23;102366.63;5070803;28;20048;-47
2021/04/25 04:39:32;;;;;;;34.95;13.77;;;;;;;8.61;73.79;102367.50;5070849;28;20045;-47
2021/04/25 04:41:58;;;;;;;31.95;13.82;;;;;;;8.58;73.71;102363.38;5071946;28;20569;-49
2021/04/25 04:44:25;;;;;;;29.95;13.25;;;;;;;8.61;73.60;102359.22;5071524;28;20467;-48
2021/04/25 04:46:51;;;;;;;37.75;14.23;;;;;;;8.64;73.70;102359.47;5071262;28;20501;-47
2021/04/25 04:49:17;;;;;;;30.30;14.95;;;;;;;8.68;73.67;102365.22;5071724;28;20055;-46
2021/04/25 04:51:44;;;;;;;31.90;14.13;;;;;;;8.68;73.66;102363.28;5082214;28;20043;-47
2021/04/25 04:54:10;;;;;;;26.05;13.38;;;;;;;8.71;73.66;102353.59;5073954;28;20037;-46
2021/04/25 04:56:37;;;;;;;40.33;15.07;;;;;;;8.68;73.57;102360.53;5051922;28;20068;-48
2021/04/25 04:59:06;;;;;;;23.58;13.23;;;;;;;8.68;73.54;102360.53;5059581;28;20032;-48
2021/04/25 05:01:33;;;;;;;33.65;13.25;;;;;;;8.71;73.67;102365.44;5052325;28;20041;-46
2021/04/25 05:04:00;;;;;;;31.20;12.95;;;;;;;8.71;73.65;102365.44;5062292;28;20048;-51
2021/04/25 05:06:26;;;;;;;41.28;15.10;;;;;;;8.67;73.99;102358.88;5071184;28;20397;-46
2021/04/25 05:08:52;;;;;;;27.30;13.38;;;;;;;8.68;74.11;102357.78;5068633;28;20144;-47
2021/04/25 05:11:21;;;;;;;24.98;10.68;;;;;;;8.71;74.34;102364.66;5051743;28;20041;-49
2021/04/25 05:13:47;;;;;;;25.27;13.10;;;;;;;8.74;74.16;102353.81;5050998;28;20099;-48
2021/04/25 05:16:14;;;;;;;32.65;13.02;;;;;;;8.79;73.95;102362.03;5051466;28;20130;-47
2021/04/25 05:18:42;;;;;;;24.92;11.68;;;;;;;8.80;73.74;102363.69;5051445;28;20072;-47
2021/04/25 05:21:10;;;;;;;33.80;14.35;;;;;;;8.83;74.07;102356.75;5070758;28;20094;-46
2021/04/25 05:23:36;;;;;;;36.30;13.80;;;;;;;8.82;73.93;102364.22;5071065;28;20041;-47
2021/04/25 05:26:03;;;;;;;32.55;13.20;;;;;;;8.86;74.02;102367.22;5066327;28;20433;-46
2021/04/25 05:28:30;;;;;;;32.88;13.70;;;;;;;8.92;73.66;102369.63;5051551;28;20087;-47
2021/04/25 05:30:57;;;;;;;36.22;13.20;;;;;;;8.97;73.78;102361.28;5066793;28;20072;-47
2021/04/25 05:33:24;;;;;;;28.27;12.55;;;;;;;8.98;73.62;102362.09;5053121;28;20076;-48
2021/04/25 05:35:50;;;;;;;29.00;12.65;;;;;;;8.97;73.63;102372.34;5071252;28;20097;-47
2021/04/25 05:38:16;;;;;;;27.30;12.05;;;;;;;9.01;73.57;102376.16;5070683;28;20516;-48
2021/04/25 05:40:43;;;;;;;39.10;16.02;;;;;;;9.00;73.56;102377.25;5066484;28;20068;-46
2021/04/25 05:43:09;;;;;;;31.08;14.85;;;;;;;8.99;73.86;102383.91;5051140;28;20041;-48
2021/04/25 05:45:36;;;;;;;29.52;12.68;;;;;;;8.97;73.80;102377.03;5051229;28;20119;-49
2021/04/25 05:48:02;;;;;;;35.38;17.20;;;;;;;8.96;74.02;102369.84;5051215;28;20142;-47
2021/04/25 05:50:30;;;;;;;30.60;14.07;;;;;;;8.99;74.05;102372.88;5051177;28;20052;-52
2021/04/25 05:52:57;;;;;;;31.38;13.10;;;;;;;9.01;74.18;102375.31;5090587;28;20131;-50
2021/04/25 05:55:24;;;;;;;27.73;13.63;;;;;;;9.04;73.94;102375.56;5090783;28;20097;-46
2021/04/25 05:57:52;;;;;;;42.53;15.55;;;;;;;9.09;74.15;102371.91;5082567;28;20093;-49
2021/04/25 06:00:22;;;;;;;33.97;15.15;;;;;;;9.11;74.18;102387.06;5071191;28;20056;-47
2021/04/25 06:02:49;;;;;;;35.92;15.95;;;;;;;9.10;74.13;102384.63;5070988;28;20663;-46
2021/04/25 06:05:16;;;;;;;41.55;14.30;;;;;;;9.04;74.32;102381.09;5071537;28;20040;-52
2021/04/25 06:07:42;;;;;;;28.73;12.85;;;;;;;9.02;74.57;102393.56;5071213;28;20163;-48
2021/04/25 06:10:10;;;;;;;33.70;12.80;;;;;;;9.03;74.92;102390.47;5070691;28;20083;-49
2021/04/25 06:12:36;;;;;;;35.95;13.70;;;;;;;9.05;74.56;102388.25;5070793;28;20128;-52
2021/04/25 06:15:05;;;;;;;33.33;14.20;;;;;;;9.07;74.85;102391.56;5070729;28;20048;-47
2021/04/25 06:17:32;;;;;;;24.65;12.07;;;;;;;9.09;74.63;102383.78;5070556;28;20562;-48
2021/04/25 06:19:58;;;;;;;36.42;12.60;;;;;;;9.14;74.82;102392.00;5073303;28;20086;-49
2021/04/25 06:22:25;;;;;;;29.10;11.93;;;;;;;9.22;74.84;102398.81;5054680;28;20757;-47
2021/04/25 06:24:54;;;;;;;32.97;13.07;;;;;;;9.26;75.15;102397.13;5062427;28;20072;-48
2021/04/25 06:27:25;;;;;;;32.70;13.18;;;;;;;9.28;75.02;102402.34;5053046;28;20132;-48
2021/04/25 06:29:55;;;;;;;32.53;11.70;;;;;;;9.31;74.92;102408.09;5054868;28;20037;-47
2021/04/25 06:32:22;;;;;;;32.78;12.93;;;;;;;9.34;74.69;102407.53;5054549;28;20044;-51
2021/04/25 06:34:48;;;;;;;38.15;12.70;;;;;;;9.36;74.69;102409.97;5054168;28;20043;-47
2021/04/25 06:37:15;;;;;;;29.30;13.00;;;;;;;9.38;74.47;102414.09;5054225;28;20045;-47
2021/04/25 06:39:41;;;;;;;33.03;13.73;;;;;;;9.41;74.50;102418.19;5055264;28;20098;-48
2021/04/25 06:42:08;;;;;;;28.65;11.35;;;;;;;9.43;74.77;102410.41;5054667;28;20792;-47
2021/04/25 06:44:34;;;;;;;27.20;14.23;;;;;;;9.44;74.46;102423.97;5053905;28;20106;-47
2021/04/25 06:47:00;;;;;;;38.40;13.48;;;;;;;9.47;75.06;102419.78;5053812;28;20046;-49
2021/04/25 06:49:28;;;;;;;31.02;12.40;;;;;;;9.48;74.64;102425.00;5054300;28;20394;-48
2021/04/25 06:51:55;;;;;;;33.08;12.50;;;;;;;9.48;74.73;102433.28;5069653;28;20049;-47
2021/04/25 06:54:22;;;;;;;28.63;13.57;;;;;;;9.50;74.63;102424.72;5058388;28;20432;-51
2021/04/25 06:56:49;;;;;;;40.03;13.50;;;;;;;9.54;74.78;102434.06;5065329;28;20049;-50
2021/04/25 06:59:15;;;;;;;30.08;12.80;;;;;;;9.59;74.70;102445.03;5069817;28;20393;-47
2021/04/25 07:01:41;;;;;;;30.45;11.95;;;;;;;9.56;74.75;102443.69;5070195;28;20048;-49
2021/04/25 07:04:08;;;;;;;27.33;13.32;;;;;;;9.53;74.70;102443.47;5057639;28;20049;-49
2021/04/25 07:06:35;;;;;;;32.05;11.75;;;;;;;9.53;74.64;102449.00;5052243;28;20053;-48
2021/04/25 07:09:02;;;;;;;30.08;12.48;;;;;;;9.55;74.54;102455.06;5058117;28;20048;-48
2021/04/25 07:11:28;;;;;;;21.25;10.82;;;;;;;9.60;74.53;102463.28;5070659;28;20090;-49
2021/04/25 07:13:55;;;;;;;23.35;12.50;;;;;;;9.62;74.53;102461.03;5068356;28;20040;-48
2021/04/25 07:16:21;;;;;;;27.00;12.02;;;;;;;9.61;74.26;102470.47;5065869;28;20411;-46
2021/04/25 07:18:47;;;;;;;33.42;12.52;;;;;;;9.71;73.95;102473.09;5071531;28;20135;-50
2021/04/25 07:21:16;;;;;;;30.92;11.27;;;;;;;9.68;73.74;102470.91;5071395;28;20048;-48
2021/04/25 07:23:42;;;;;;;23.50;12.60;;;;;;;9.75;73.90;102463.91;5066986;28;20676;-48
2021/04/25 07:26:11;;;;;;;29.02;11.57;;;;;;;9.89;73.76;102477.81;5050575;28;20084;-48
2021/04/25 07:28:38;;;;;;;22.73;10.10;;;;;;;9.94;73.14;102471.38;5070297;28;20406;-47
2021/04/25 07:31:05;;;;;;;19.17;9.15;;;;;;;10.03;73.02;102470.44;5070258;28;20559;-49
2021/04/25 07:33:32;;;;;;;26.42;10.50;;;;;;;10.07;72.75;102471.44;5054950;28;20544;-50
2021/04/25 07:35:59;;;;;;;24.25;9.43;;;;;;;10.03;72.58;102469.59;5050319;28;20156;-49
2021/04/25 07:38:27;;;;;;;20.50;9.98;;;;;;;10.08;72.43;102478.66;5052953;28;20045;-49
2021/04/25 07:40:53;;;;;;;22.88;9.80;;;;;;;10.14;72.24;102474.69;5070453;28;20141;-47
2021/04/25 07:43:19;;;;;;;24.90;10.38;;;;;;;10.08;72.25;102478.66;5068302;28;20075;-48
2021/04/25 07:45:49;;;;;;;25.75;12.50;;;;;;;10.19;72.36;102480.13;5070135;28;20040;-50
2021/04/25 07:48:16;;;;;;;22.27;9.60;;;;;;;10.33;72.11;102474.66;5070641;28;20124;-47
2021/04/25 07:50:44;;;;;;;23.70;10.27;;;;;;;10.33;71.78;102483.81;5072218;28;20113;-50
2021/04/25 07:53:10;;;;;;;23.40;9.95;;;;;;;10.35;71.81;102484.31;5073868;28;20520;-50
2021/04/25 07:55:37;;;;;;;22.17;9.43;;;;;;;10.29;71.55;102474.47;5069661;28;20472;-47
2021/04/25 07:58:03;;;;;;;25.75;10.60;;;;;;;10.32;71.85;102484.94;5055687;28;20041;-47
2021/04/25 08:00:30;;;;;;;22.35;9.60;;;;;;;10.35;71.78;102483.53;5051206;28;20558;-51
2021/04/25 08:02:56;;;;;;;21.27;9.90;;;;;;;10.34;71.61;102487.41;5049340;28;20068;-51
2021/04/25 08:05:23;;;;;;;19.13;8.80;;;;;;;10.32;71.58;102490.47;5050272;28;20060;-46
2021/04/25 08:07:51;;;;;;;19.27;9.10;;;;;;;10.31;71.45;102488.81;5064604;28;20450;-50
2021/04/25 08:10:17;;;;;;;20.70;9.85;;;;;;;10.38;71.79;102488.44;5052636;28;20041;-54
2021/04/25 08:12:48;;;;;;;21.73;10.07;;;;;;;10.53;72.12;102485.44;5051483;28;20040;-50
2021/04/25 08:15:14;;;;;;;25.02;10.90;;;;;;;10.74;72.03;102491.44;5065151;28;20068;-48
2021/04/25 08:18:01;;;;;;;24.35;10.68;;;;;;;10.96;72.48;102491.59;5063384;28;20443;-49
2021/04/25 08:20:48;;;;;;;31.13;13.07;;;;;;;11.21;72.89;102488.34;5048450;28;20188;-47
2021/04/25 08:23:36;;;;;;;23.02;11.95;;;;;;;11.60;73.17;102488.63;5047904;28;20051;-51
2021/04/25 08:26:23;;;;;;;29.95;12.77;;;;;;;11.84;71.39;102491.19;5049462;28;20064;-53
2021/04/25 08:29:09;;;;;;;26.30;13.48;;;;;;;12.07;70.22;102500.41;5047621;28;20111;-52
2021/04/25 08:31:56;;;;;;;23.60;13.85;;;;;;;12.57;68.75;102493.63;5063723;28;20512;-49
2021/04/25 08:34:43;;;;;;;24.58;13.90;;;;;;;12.99;67.47;102495.03;5087531;28;20222;-48
2021/04/25 08:37:29;;;;;;;26.55;13.15;;;;;;;12.76;65.66;102488.66;5087507;28;20048;-46
2021/04/25 08:40:16;;;;;;;25.80;12.82;;;;;;;12.81;65.05;102496.06;5087835;28;20062;-49
2021/04/25 08:43:01;;;;;;;26.55;14.18;;;;;;;13.05;64.47;102485.38;5088192;28;20072;-51
2021/04/25 08:45:30;;;;;;;24.73;13.55;;;;;;;13.65;63.77;102494.00;5089957;28;20086;-52
2021/04/25 08:48:00;;;;;;;29.25;13.90;;;;;;;13.98;62.96;102498.00;5089627;28;20138;-50
2021/04/25 08:50:30;;;;;;;27.25;13.55;;;;;;;13.84;62.20;102491.78;5072756;28;20048;-50
2021/04/25 08:52:58;;;;;;;21.70;12.88;;;;;;;13.81;61.50;102491.59;5064416;28;20079;-50
2021/04/25 08:55:27;;;;;;;24.27;11.82;;;;;;;14.13;61.48;102490.31;5069787;28;20110;-50
2021/04/25 08:57:54;;;;;;;18.70;8.85;;;;;;;14.40;60.28;102487.25;5069349;28;20048;-50
2021/04/25 09:00:21;;;;;;;20.20;9.18;;;;;;;14.70;59.71;102496.53;5069618;28;20105;-48
2021/04/25 09:02:52;;;;;;;19.23;9.80;;;;;;;15.11;58.42;102497.59;5069674;28;20110;-52
2021/04/25 09:05:20;;;;;;;18.13;7.93;;;;;;;15.39;57.99;102494.34;5065257;28;20044;-50
2021/04/25 09:08:07;;;;;;;15.73;6.80;;;;;;;15.36;57.09;102514.53;5053292;28;20048;-48
2021/04/25 09:10:54;;;;;;;11.70;5.45;;;;;;;15.22;56.39;102515.59;5052056;28;20152;-47
2021/04/25 09:13:29;;;;;;;16.05;5.65;;;;;;;15.47;55.73;102510.25;5069210;28;20063;-51
2021/04/25 09:16:08;;;;;;;14.50;5.95;;;;;;;15.91;54.16;102506.09;5069174;28;20048;-50
2021/04/25 09:18:35;;;;;;;13.95;5.55;;;;;;;16.02;54.16;102504.53;5069544;28;20040;-50
2021/04/25 09:21:11;;;;;;;13.85;5.32;;;;;;;15.61;51.28;102510.88;5068638;28;20048;-49
2021/04/25 09:23:38;;;;;;;15.85;5.95;;;;;;;15.31;53.42;102518.34;5088806;28;20066;-48
2021/04/25 09:26:40;;;;;;;13.77;5.10;;;;;;;15.06;52.30;102506.13;5086141;28;20496;-53
2021/04/25 09:29:50;;;;;;;22.38;5.22;;;;;;;14.99;53.03;102505.81;5048314;28;20086;-53
2021/04/25 09:32:37;;;;;;;12.38;5.20;;;;;;;15.33;52.94;102509.66;5048580;28;20442;-51
2021/04/25 09:35:24;;;;;;;14.50;5.78;;;;;;;15.60;52.55;102506.41;5048689;28;20049;-50
2021/04/25 09:38:13;;;;;;;10.95;6.00;;;;;;;15.76;51.53;102513.88;5048276;28;20433;-52
2021/04/25 09:40:59;;;;;;;17.40;7.72;;;;;;;15.29;52.44;102508.66;5047488;28;20130;-51
2021/04/25 09:43:46;;;;;;;13.13;6.40;;;;;;;15.11;52.69;102500.38;5048734;28;20049;-52
2021/04/25 09:46:52;;;;;;;17.48;7.25;;;;;;;15.50;52.25;102507.63;5049250;28;20045;-53
2021/04/25 09:49:36;;;;;;;14.27;6.55;;;;;;;16.21;51.37;102502.91;5058447;28;20114;-51
2021/04/25 09:52:04;;;;;;;16.73;7.25;;;;;;;16.64;51.34;102507.31;5068317;28;20128;-51
2021/04/25 09:54:31;;;;;;;25.55;8.95;;;;;;;16.63;50.65;102509.28;5052603;28;20075;-51
2021/04/25 09:56:57;;;;;;;12.95;7.55;;;;;;;16.76;50.46;102510.19;5051372;28;20132;-51
2021/04/25 09:59:23;;;;;;;16.60;7.53;;;;;;;16.90;50.25;102516.28;5052172;28;20041;-49
2021/04/25 10:02:02;;;;;;;16.65;8.15;;;;;;;16.74;48.73;102506.88;5067620;28;20094;-52
2021/04/25 10:04:36;;;;;;;16.30;7.45;;;;;;;16.77;49.89;102500.59;5072835;28;20036;-53
2021/04/25 10:07:08;;;;;;;14.73;7.50;;;;;;;16.67;48.48;102501.06;5073273;28;20037;-48
2021/04/25 10:09:35;;;;;;;14.65;7.13;;;;;;;16.44;49.15;102500.59;5072594;28;20075;-53
2021/04/25 10:12:03;;;;;;;14.25;6.82;;;;;;;16.69;48.86;102493.94;5070387;28;20036;-49
2021/04/25 10:14:31;;;;;;;20.60;8.30;;;;;;;16.80;48.62;102497.13;5057656;28;20075;-48
2021/04/25 10:16:59;;;;;;;21.77;9.88;;;;;;;16.92;48.33;102495.19;5052782;28;20087;-48
2021/04/25 10:19:26;;;;;;;23.85;9.90;;;;;;;16.81;47.97;102487.59;5064738;28;20055;-48
2021/04/25 10:21:53;;;;;;;21.63;10.10;;;;;;;16.28;48.48;102491.97;5053310;28;20045;-50
2021/04/25 10:24:21;;;;;;;13.20;7.22;;;;;;;16.18;48.38;102489.59;5061920;28;20130;-49
2021/04/25 10:27:02;;;;;;;15.02;8.00;;;;;;;16.47;47.77;102488.69;5068664;28;20060;-53
2021/04/25 10:29:49;;;;;;;18.05;7.38;;;;;;;16.68;47.98;102480.31;5065151;28;20135;-48
2021/04/25 10:32:17;;;;;;;23.52;7.75;;;;;;;16.98;47.36;102482.59;5080982;28;20442;-50
2021/04/25 10:34:47;;;;;;;29.38;8.95;;;;;;;17.16;47.66;102479.59;5089852;28;20531;-50
2021/04/25 10:37:13;;;;;;;22.75;7.68;;;;;;;17.12;47.65;102479.50;5073855;28;20055;-49
2021/04/25 10:39:45;;;;;;;29.02;7.78;;;;;;;16.93;47.72;102470.81;5091029;28;20142;-48
2021/04/25 10:44:56;;;;;;;33.42;11.88;;;;;;;16.60;48.08;102482.00;5092570;28;19931;-48
2021/04/25 10:47:32;;;;;;;19.40;7.05;;;;;;;16.29;48.27;102471.25;5086127;28;20076;-46
2021/04/25 10:50:20;;;;;;;23.42;9.02;;;;;;;15.82;48.65;102472.63;5072680;28;20119;-49
2021/04/25 10:52:50;;;;;;;23.88;8.35;;;;;;;15.58;49.44;102464.06;5077369;28;20068;-52
2021/04/25 10:55:20;;;;;;;43.85;8.90;;;;;;;15.55;49.86;102479.53;5070440;28;20558;-50
2021/04/25 10:57:57;;;;;;;22.05;8.63;;;;;;;15.40;50.13;102480.06;5060602;28;20478;-52
2021/04/25 11:00:46;;;;;;;27.30;7.55;;;;;;;14.96;49.92;102473.00;5050703;28;20122;-47
2021/04/25 11:03:33;;;;;;;23.20;6.32;;;;;;;14.58;50.23;102478.53;5051377;28;20049;-47
2021/04/25 11:06:24;;;;;;;29.50;9.13;;;;;;;14.33;50.62;102475.75;5050196;28;20415;-45
2021/04/25 11:09:51;;;;;;;16.77;7.75;;;;;;;14.09;51.30;102469.81;5051524;28;20046;-48
2021/04/25 11:12:40;;;;;;;20.48;8.27;;;;;;;13.93;51.33;102467.53;5091516;28;20040;-46
2021/04/25 11:15:50;;;;;;;18.30;6.93;;;;;;;13.94;51.23;102468.34;5089957;28;20127;-44
2021/04/25 11:18:49;;;;;;;11.63;5.35;;;;;;;13.72;51.83;102469.28;5089465;28;20052;-51
2021/04/25 11:21:54;;;;;;;13.68;6.00;;;;;;;13.54;52.83;102469.56;5078964;28;20047;-50
2021/04/25 11:24:41;;;;;;;12.38;5.70;;;;;;;13.29;52.47;102462.81;5056605;28;20498;-44
2021/04/25 11:27:32;;;;;;;13.13;5.60;;;;;;;13.02;52.93;102466.59;5050702;28;20543;-47
2021/04/25 11:30:38;;;;;;;18.25;6.60;;;;;;;12.96;53.21;102459.53;5048937;28;20088;-52
2021/04/25 11:33:34;;;;;;;13.20;6.20;;;;;;;12.91;54.09;102461.63;5051610;28;20045;-50